Flight Track Log - Related Links

Times and Time Zones

All times are in EDT time to prevent confusion due to time zone crossing. See the GJS3706 flight status page for this flight to view local times or setup timezone preferences in your user account.

Time Position Orientation Groundspeed Altitude Reporting Facility
EDT Latitude Longitude Course Direction KTS MPH feet Rate Location/Type
Wed 10:36:04 AM 41.9000 -87.8833 180° South 216 249 3,900  Level Chicago TRACON
Wed 10:38:00 AM 41.6778 -87.5527 159° South  Level Estimated
Wed 10:38:28 AM 41.7472 -87.7811 153° Southeast 274 315 9,900  Level Chicago Center
Wed 10:39:00 AM 41.6017 -87.4647 153° Southeast  Level Estimated
Wed 10:39:30 AM 41.6711 -87.7331 155° Southeast 298 343 12,600  Level Chicago Center
Wed 10:40:00 AM 41.5255 -87.3770 159° South  Level Estimated
Wed 10:40:32 AM 41.5619 -87.6619 154° Southeast 361 415 15,200  Level Chicago Center
Wed 10:41:00 AM 41.4492 -87.2894 180° South  Level Estimated
Wed 10:41:34 AM 41.4678 -87.5994 154° Southeast 374 430 17,700  Level Chicago Center
Wed 10:42:36 AM 41.3617 -87.5611 165° South 403 464 19,900 1,597 Climbing Chicago Center
Wed 10:43:38 AM 41.2475 -87.5414 173° South 410 472 21,000 532 Climbing Chicago Center
Wed 10:44:40 AM 41.1422 -87.4808 157° South 419 482 21,000  Level Chicago Center
Wed 10:45:42 AM 41.0464 -87.4003 148° Southeast 411 473 21,000  Level Chicago Center
Wed 10:46:44 AM 40.9556 -87.3233 147° Southeast 395 455 21,000  Level Chicago Center
Wed 10:47:46 AM 40.8494 -87.2311 147° Southeast 382 440 21,000  Level Chicago Center
Wed 10:48:48 AM 40.7614 -87.1547 147° Southeast 380 437 21,000  Level Chicago Center
Wed 10:49:50 AM 40.6664 -87.0750 148° Southeast 376 433 21,000  Level Chicago Center
Wed 10:50:52 AM 40.5783 -87.0003 147° Southeast 377 434 21,000  Level Chicago Center
Wed 10:51:54 AM 40.4886 -86.9250 147° Southeast 382 440 21,000  Level Chicago Center
Wed 10:52:56 AM 40.3989 -86.8506 148° Southeast 383 441 21,000  Level Chicago Center
Wed 10:53:58 AM 40.3097 -86.7764 148° Southeast 381 438 21,000  Level Chicago Center
Wed 10:55:00 AM 40.2211 -86.7017 147° Southeast 381 438 21,000  Level Chicago Center
Wed 10:56:02 AM 40.1147 -86.6139 148° Southeast 378 435 21,000  Level Chicago Center
Wed 10:56:53 AM 40.0431 -86.5550 148° Southeast 378 435 21,000  Level Indianapolis Center
Wed 10:57:55 AM 39.9544 -86.4825 148° Southeast 376 433 21,000  Level Indianapolis Center
Wed 10:58:56 AM 39.8667 -86.4100 148° Southeast 376 433 21,000 -683 Level Indianapolis Center
Wed 10:59:58 AM 39.7981 -86.3122 132° Southeast 379 436 19,600 -1,452 Descending Indianapolis Center
Wed 11:01:00 AM 39.7528 -86.1806 114° Southeast 376 433 18,000 -1,463 Descending Indianapolis Center
Wed 11:02:01 AM 39.7119 -86.0586 113° Southeast 368 423 16,600 -1,415 Descending Indianapolis Center
Wed 11:03:03 AM 39.6731 -85.9428 114° Southeast 355 409 15,100 -1,258 Descending Indianapolis Center
Wed 11:04:05 AM 39.6353 -85.8294 113° Southeast 346 398 14,000 -968 Descending Indianapolis Center
Wed 11:05:07 AM 39.5903 -85.6947 113° Southeast 343 395 13,100 -1,024 Descending Indianapolis Center
Wed 11:06:08 AM 39.5533 -85.5853 114° Southeast 334 384 11,900 -1,024 Descending Indianapolis Center
Wed 11:07:10 AM 39.5161 -85.4833 115° Southeast 317 365 11,000 -581 Descending Indianapolis Center
Wed 11:08:12 AM 39.4750 -85.3869 119° Southeast 309 356 10,700 -780 Descending Indianapolis Center
Wed 11:09:13 AM 39.4531 -85.2911 106° East 283 326 9,400 -1,171 Descending Indianapolis Center
Wed 11:10:15 AM 39.4297 -85.1928 107° East 287 330 8,300 -677 Descending Indianapolis Center
Wed 11:11:17 AM 39.3928 -85.0847 114° Southeast 275 316 8,000 -677 Descending Indianapolis Center
Wed 11:12:19 AM 39.3567 -84.9989 119° Southeast 273 314 6,900 -1,024 Descending Indianapolis Center
Wed 11:13:20 AM 39.3225 -84.9167 118° Southeast 265 305 5,900 -1,101 Descending Indianapolis Center
Wed 11:14:08 AM 39.3000 -84.8500 114° Southeast 260 299 4,900 -1,167 Descending Cincinnati TRACON
Wed 11:15:08 AM 39.2667 -84.7667 117° Southeast 234 269 3,800 -950 Descending Cincinnati TRACON
Wed 11:16:08 AM 39.2167 -84.7167 142° Southeast 198 228 3,000 -550 Descending Cincinnati TRACON
Wed 11:17:08 AM 39.1833 -84.6833 142° Southeast 188 216 2,700 -333 Descending Cincinnati TRACON
Wed 11:18:14 AM 39.1333 -84.6667 166° South 152 175 2,300 -364 Descending Cincinnati TRACON

Login

Don't have an account? Register now (free) for customized features, flight alerts, and more!